Time;durP1;ratioP1;P1;durP2;ratioP2;P2;SDS_P1;SDS_P2;PMS_P1;PMS_P2;Temp;Humidity;BMP_temperature;BMP_pressure;BME280_temperature;BME280_humidity;BME280_pressure;Samples;Min_cycle;Max_cycle;Signal;HPM_P1;HPM_P2
2024/03/28 00:01:26;;;;;;;8.80;2.72;;;7.50;99.90;;;;;;4983286;28;20030;-62
2024/03/28 00:03:52;;;;;;;8.02;2.70;;;7.50;99.90;;;;;;4982786;28;20022;-64
2024/03/28 00:06:17;;;;;;;6.82;2.80;;;7.50;99.90;;;;;;4984042;28;20033;-62
2024/03/28 00:08:43;;;;;;;7.40;2.65;;;7.50;99.90;;;;;;4994051;28;20037;-66
2024/03/28 00:11:08;;;;;;;7.35;3.05;;;7.60;99.90;;;;;;4981383;28;20133;-69
2024/03/28 00:13:34;;;;;;;6.75;2.50;;;7.50;99.90;;;;;;4987097;28;20018;-68
2024/03/28 00:16:02;;;;;;;7.60;2.80;;;7.60;99.90;;;;;;4988982;28;20104;-69
2024/03/28 00:18:29;;;;;;;7.40;2.90;;;7.60;99.90;;;;;;4988631;28;20030;-67
2024/03/28 00:20:59;;;;;;;8.35;2.53;;;7.60;99.90;;;;;;4987698;28;20030;-71
2024/03/28 00:23:24;;;;;;;7.20;2.60;;;7.60;99.90;;;;;;4984698;28;20151;-71
2024/03/28 00:26:00;;;;;;;8.90;2.75;;;7.60;99.90;;;;;;4987328;28;20091;-72
2024/03/28 00:28:27;;;;;;;9.23;3.25;;;7.60;99.90;;;;;;4982904;28;20058;-68
2024/03/28 00:30:53;;;;;;;8.25;3.00;;;7.60;99.90;;;;;;4987651;28;20026;-69
2024/03/28 00:33:19;;;;;;;8.48;3.30;;;7.50;99.90;;;;;;4992329;28;20038;-70
2024/03/28 00:35:46;;;;;;;9.57;3.10;;;7.50;99.90;;;;;;4987799;28;20057;-68
2024/03/28 00:38:12;;;;;;;8.48;2.95;;;7.50;99.90;;;;;;4980834;28;20115;-69
2024/03/28 00:40:49;;;;;;;9.70;3.40;;;7.50;99.90;;;;;;4990043;28;20425;-72
2024/03/28 00:43:15;;;;;;;7.45;2.65;;;7.40;99.90;;;;;;4981162;28;20144;-71
2024/03/28 00:45:41;;;;;;;8.27;2.97;;;7.50;99.90;;;;;;4983765;28;20396;-69
2024/03/28 00:48:08;;;;;;;6.75;2.92;;;7.50;99.90;;;;;;4993276;28;20050;-71
2024/03/28 00:50:34;;;;;;;8.48;3.20;;;7.50;99.90;;;;;;4990543;28;20039;-69
2024/03/28 00:53:00;;;;;;;8.35;3.53;;;7.50;99.90;;;;;;4985008;28;20038;-70
2024/03/28 00:55:25;;;;;;;8.35;3.00;;;7.40;99.90;;;;;;4990225;28;20458;-70
2024/03/28 00:57:52;;;;;;;7.80;3.30;;;7.40;99.90;;;;;;4984724;28;20030;-70
2024/03/28 01:00:19;;;;;;;7.95;3.05;;;7.40;99.90;;;;;;4990674;28;20052;-69
2024/03/28 01:02:45;;;;;;;8.95;3.10;;;7.30;99.90;;;;;;4983681;28;20034;-69
2024/03/28 01:05:11;;;;;;;8.75;3.45;;;7.30;99.90;;;;;;4988364;28;20123;-70
2024/03/28 01:07:37;;;;;;;9.43;3.63;;;7.30;99.90;;;;;;4988976;28;20018;-66
2024/03/28 01:10:03;;;;;;;9.23;3.42;;;7.30;99.90;;;;;;4990060;28;20127;-65
2024/03/28 01:12:29;;;;;;;9.30;3.72;;;7.30;99.90;;;;;;4984097;28;20026;-67
2024/03/28 01:14:56;;;;;;;8.52;3.08;;;7.30;99.90;;;;;;4988968;28;20507;-66
2024/03/28 01:17:21;;;;;;;8.70;3.38;;;7.30;99.90;;;;;;4987768;28;20036;-66
2024/03/28 01:19:48;;;;;;;8.07;3.35;;;7.30;99.90;;;;;;4991188;28;20037;-66
2024/03/28 01:22:14;;;;;;;8.25;3.67;;;7.30;99.90;;;;;;4983559;28;20018;-67
2024/03/28 01:24:39;;;;;;;7.63;2.92;;;7.30;99.90;;;;;;4986572;28;20045;-66
2024/03/28 01:27:05;;;;;;;8.98;3.53;;;7.30;99.90;;;;;;4985626;28;20049;-66
2024/03/28 01:29:31;;;;;;;7.53;2.92;;;7.30;99.90;;;;;;4992896;28;20026;-65
2024/03/28 01:31:58;;;;;;;9.75;3.22;;;7.30;99.90;;;;;;4992951;28;20480;-61
2024/03/28 01:34:24;;;;;;;9.27;3.33;;;7.30;99.90;;;;;;4989082;28;20022;-62
2024/03/28 01:36:50;;;;;;;7.45;3.10;;;7.30;99.90;;;;;;4992421;28;20079;-62
2024/03/28 01:39:15;;;;;;;7.70;3.10;;;7.30;99.90;;;;;;4990620;28;20021;-66
2024/03/28 01:41:41;;;;;;;7.65;3.03;;;7.30;99.90;;;;;;4990946;28;20018;-70
2024/03/28 01:44:07;;;;;;;8.35;3.35;;;7.30;99.90;;;;;;4989884;28;20022;-62
2024/03/28 01:46:33;;;;;;;8.02;3.17;;;7.30;99.90;;;;;;4993303;28;20060;-62
2024/03/28 01:48:59;;;;;;;8.45;2.88;;;7.20;99.90;;;;;;4989717;28;20141;-63
2024/03/28 01:51:25;;;;;;;8.45;3.22;;;7.20;99.90;;;;;;4993444;28;20027;-63
2024/03/28 01:53:51;;;;;;;8.48;3.25;;;7.20;99.90;;;;;;4989232;28;20040;-63
2024/03/28 01:56:18;;;;;;;5.50;1.83;;;7.10;99.90;;;;;;4995185;28;20026;-71
2024/03/28 01:58:47;;;;;;;8.48;3.13;;;7.20;99.90;;;;;;4987459;28;20037;-66
2024/03/28 02:01:14;;;;;;;7.53;2.78;;;7.20;99.90;;;;;;4992633;28;20045;-67
2024/03/28 02:03:39;;;;;;;9.48;3.35;;;7.10;99.90;;;;;;4990118;28;20068;-66
2024/03/28 02:06:05;;;;;;;8.10;3.22;;;7.10;99.90;;;;;;4993061;28;20069;-69
2024/03/28 02:08:31;;;;;;;8.18;3.00;;;7.10;99.90;;;;;;4990530;28;20029;-66
2024/03/28 02:10:57;;;;;;;10.77;3.28;;;7.00;99.90;;;;;;4995090;28;20043;-61
2024/03/28 02:13:23;;;;;;;7.68;3.10;;;7.00;99.90;;;;;;4991663;28;20079;-70
2024/03/28 02:15:49;;;;;;;7.95;3.70;;;7.00;99.90;;;;;;4995423;28;20576;-61
2024/03/28 02:18:20;;;;;;;7.72;2.72;;;7.00;99.90;;;;;;4992509;28;20037;-62
2024/03/28 02:20:46;;;;;;;8.43;3.53;;;7.00;99.90;;;;;;4992876;28;20027;-63
2024/03/28 02:23:13;;;;;;;8.93;3.45;;;7.00;99.90;;;;;;4991472;28;20153;-66
2024/03/28 02:25:42;;;;;;;11.13;3.42;;;6.90;99.90;;;;;;4995558;28;20030;-68
2024/03/28 02:28:09;;;;;;;9.60;2.92;;;7.10;99.90;;;;;;5069436;28;20040;-66
2024/03/28 02:30:34;;;;;;;9.93;3.40;;;6.90;99.90;;;;;;5075126;28;20039;-67
2024/03/28 02:33:00;;;;;;;9.25;3.50;;;6.90;99.90;;;;;;5052473;28;20024;-66
2024/03/28 02:35:26;;;;;;;10.05;3.20;;;6.90;99.90;;;;;;5073870;28;20477;-66
2024/03/28 02:37:51;;;;;;;8.05;3.20;;;7.00;99.90;;;;;;5070612;28;20115;-68
2024/03/28 02:40:17;;;;;;;7.95;3.00;;;6.90;99.90;;;;;;5073418;28;20108;-68
2024/03/28 02:42:42;;;;;;;9.55;2.88;;;6.90;99.90;;;;;;5071507;28;20589;-68
2024/03/28 02:45:08;;;;;;;7.63;2.88;;;7.00;99.90;;;;;;5074257;28;20515;-69
2024/03/28 02:47:36;;;;;;;7.15;2.95;;;6.90;99.90;;;;;;5049923;28;20040;-66
2024/03/28 02:50:02;;;;;;;12.52;2.97;;;6.90;99.90;;;;;;5077272;28;20032;-68
2024/03/28 02:52:28;;;;;;;7.88;2.70;;;6.80;99.90;;;;;;5074094;28;20034;-67
2024/03/28 02:54:54;;;;;;;7.80;2.92;;;6.90;99.90;;;;;;5076712;28;20045;-66
2024/03/28 02:57:23;;;;;;;8.60;3.20;;;6.80;99.90;;;;;;5072787;28;20405;-66
2024/03/28 02:59:49;;;;;;;8.47;3.27;;;6.80;99.90;;;;;;5016559;28;20412;-68
2024/03/28 03:02:14;;;;;;;7.45;2.80;;;6.80;99.90;;;;;;4995231;28;20277;-68
2024/03/28 03:04:40;;;;;;;7.68;3.05;;;6.80;99.90;;;;;;4996325;28;20036;-68
2024/03/28 03:07:06;;;;;;;7.75;2.92;;;6.80;99.90;;;;;;4993663;28;20011;-68
2024/03/28 03:09:31;;;;;;;9.05;3.35;;;6.80;99.90;;;;;;4997244;28;20022;-68
2024/03/28 03:11:57;;;;;;;7.45;2.78;;;6.80;99.90;;;;;;4993781;28;20026;-67
2024/03/28 03:14:23;;;;;;;8.23;3.30;;;6.80;99.90;;;;;;4995462;28;20026;-66
2024/03/28 03:16:51;;;;;;;9.52;3.55;;;6.80;99.90;;;;;;4997811;28;20504;-66
2024/03/28 03:19:17;;;;;;;9.00;3.15;;;6.70;99.90;;;;;;4993591;28;20297;-66
2024/03/28 03:21:51;;;;;;;10.00;3.30;;;6.80;99.90;;;;;;4994371;28;20018;-67
2024/03/28 03:24:20;;;;;;;8.90;3.50;;;6.80;99.90;;;;;;4993444;28;20422;-66
2024/03/28 03:26:52;;;;;;;8.88;3.08;;;6.80;99.90;;;;;;4992449;28;20492;-62
2024/03/28 03:34:51;;;;;;;9.57;3.20;;;6.80;99.90;;;;;;4997673;28;20088;-61
2024/03/28 03:37:20;;;;;;;8.63;3.47;;;6.80;99.90;;;;;;4991795;28;20030;-62
2024/03/28 03:39:46;;;;;;;8.75;3.50;;;6.80;99.90;;;;;;4996204;28;20113;-64
2024/03/28 03:42:14;;;;;;;9.68;3.53;;;6.80;99.90;;;;;;4994605;28;20114;-69
2024/03/28 03:44:39;;;;;;;8.95;3.15;;;6.70;99.90;;;;;;4993878;28;20026;-62
2024/03/28 03:47:09;;;;;;;7.95;3.13;;;6.70;99.90;;;;;;4994238;28;20083;-64
2024/03/28 03:49:35;;;;;;;10.20;4.00;;;6.70;99.90;;;;;;4998703;28;20058;-66
2024/03/28 03:52:04;;;;;;;8.85;3.30;;;6.70;99.90;;;;;;4999167;28;20032;-62
2024/03/28 03:54:29;;;;;;;11.15;4.13;;;6.90;99.90;;;;;;4981091;28;20818;-66
2024/03/28 03:56:55;;;;;;;8.05;3.15;;;6.70;99.90;;;;;;4992638;28;20022;-61
2024/03/28 03:59:21;;;;;;;8.40;3.60;;;6.70;99.90;;;;;;4996599;28;20022;-69
2024/03/28 04:01:47;;;;;;;10.77;3.75;;;6.60;99.90;;;;;;4995183;28;20034;-63
2024/03/28 04:04:13;;;;;;;13.27;4.35;;;6.70;99.90;;;;;;4993260;28;20022;-61
2024/03/28 04:06:39;;;;;;;9.27;3.58;;;6.60;99.90;;;;;;4996908;28;20030;-62
2024/03/28 04:09:04;;;;;;;8.07;2.92;;;6.50;99.90;;;;;;4996198;28;20113;-62
2024/03/28 04:11:30;;;;;;;10.63;3.83;;;6.60;99.90;;;;;;4994612;28;20470;-61
2024/03/28 04:13:56;;;;;;;10.15;3.88;;;6.60;99.90;;;;;;4996522;28;20037;-62
2024/03/28 04:16:21;;;;;;;8.27;3.28;;;6.60;99.90;;;;;;4998471;28;20087;-60
2024/03/28 04:18:47;;;;;;;11.93;4.60;;;6.60;99.90;;;;;;4995104;28;20029;-61
2024/03/28 04:21:12;;;;;;;12.18;4.95;;;6.60;99.90;;;;;;4996297;28;20068;-64
2024/03/28 04:23:38;;;;;;;10.02;4.10;;;6.60;99.90;;;;;;4994586;28;20029;-62
2024/03/28 04:26:03;;;;;;;9.95;4.35;;;6.50;99.90;;;;;;4995924;28;20030;-62
2024/03/28 04:28:29;;;;;;;11.65;4.15;;;6.50;99.90;;;;;;4991628;28;20192;-62
2024/03/28 04:30:55;;;;;;;10.88;4.50;;;6.40;99.90;;;;;;4995145;28;20390;-63
2024/03/28 04:33:20;;;;;;;9.95;4.18;;;6.40;99.90;;;;;;4993262;28;20087;-62
2024/03/28 04:35:46;;;;;;;13.38;4.22;;;6.40;99.90;;;;;;4996843;28;20026;-64
2024/03/28 04:38:12;;;;;;;10.15;4.53;;;6.40;99.90;;;;;;4997537;28;20173;-63
2024/03/28 04:40:37;;;;;;;11.48;4.13;;;6.40;99.90;;;;;;4998604;28;20122;-63
2024/03/28 04:43:03;;;;;;;10.95;4.35;;;6.40;99.90;;;;;;4994767;28;20033;-62
2024/03/28 04:45:29;;;;;;;11.80;4.63;;;6.30;99.90;;;;;;4993529;28;20026;-63
2024/03/28 04:47:55;;;;;;;12.00;4.78;;;6.20;99.90;;;;;;4992146;28;20038;-63
2024/03/28 04:50:20;;;;;;;7.43;2.90;;;6.10;99.90;;;;;;4993890;28;20053;-64
2024/03/28 04:52:47;;;;;;;11.75;4.70;;;6.10;99.90;;;;;;4994496;28;20496;-62
2024/03/28 04:55:13;;;;;;;12.55;4.45;;;6.10;99.90;;;;;;4992315;28;20030;-64
2024/03/28 04:57:39;;;;;;;9.70;3.92;;;6.10;99.90;;;;;;4987588;28;20464;-62
2024/03/28 05:00:07;;;;;;;11.88;4.53;;;6.10;99.90;;;;;;4998030;28;20083;-62
2024/03/28 05:02:34;;;;;;;10.27;4.50;;;6.00;99.90;;;;;;4989728;28;20477;-63
2024/03/28 05:04:59;;;;;;;11.93;4.35;;;6.00;99.90;;;;;;4998331;28;20400;-67
2024/03/28 05:07:25;;;;;;;11.57;4.30;;;6.00;99.90;;;;;;4991488;28;20023;-67
2024/03/28 05:09:51;;;;;;;9.98;3.78;;;6.00;99.90;;;;;;4997422;28;20042;-72
2024/03/28 05:12:17;;;;;;;10.70;3.65;;;6.00;99.90;;;;;;4992170;28;20488;-63
2024/03/28 05:14:42;;;;;;;9.73;3.95;;;6.00;99.90;;;;;;4993664;28;20046;-64
2024/03/28 05:17:09;;;;;;;10.98;4.68;;;6.00;99.90;;;;;;4996490;28;20743;-70
2024/03/28 05:19:35;;;;;;;9.82;4.10;;;6.00;99.90;;;;;;4997187;28;20113;-72
2024/03/28 05:22:02;;;;;;;6.97;3.00;;;6.00;99.90;;;;;;4990350;28;20109;-70
2024/03/28 05:24:28;;;;;;;10.20;4.13;;;6.10;99.90;;;;;;4991454;28;20265;-67
2024/03/28 05:26:54;;;;;;;11.13;4.15;;;6.10;99.90;;;;;;4977985;28;20080;-70
2024/03/28 05:29:21;;;;;;;9.65;3.83;;;6.20;99.90;;;;;;4986138;28;20026;-69
2024/03/28 05:31:47;;;;;;;8.75;3.95;;;6.20;99.90;;;;;;4984361;28;20494;-70
2024/03/28 05:34:12;;;;;;;9.65;4.13;;;6.20;99.90;;;;;;4990721;28;20077;-71
2024/03/28 05:36:38;;;;;;;12.27;4.45;;;6.20;99.90;;;;;;4991050;28;20022;-73
2024/03/28 05:39:05;;;;;;;9.30;3.90;;;6.20;99.90;;;;;;4991144;28;20042;-69
2024/03/28 05:41:31;;;;;;;10.13;4.13;;;6.20;99.90;;;;;;4985420;28;20478;-70
2024/03/28 05:43:57;;;;;;;13.40;4.18;;;6.10;99.90;;;;;;4989802;28;20080;-60
2024/03/28 05:46:22;;;;;;;10.25;4.25;;;6.10;99.90;;;;;;4985692;28;20030;-62
2024/03/28 05:48:48;;;;;;;10.40;4.28;;;6.10;99.90;;;;;;4983710;28;20050;-61
2024/03/28 05:51:13;;;;;;;9.50;3.75;;;6.10;99.90;;;;;;4984133;28;20195;-61
2024/03/28 05:53:45;;;;;;;9.90;4.00;;;6.10;99.90;;;;;;4986694;28;20037;-61
2024/03/28 05:56:11;;;;;;;10.25;3.97;;;6.20;99.90;;;;;;4989576;28;20544;-65
2024/03/28 05:58:36;;;;;;;8.68;3.42;;;6.30;99.90;;;;;;4988338;28;20022;-72
2024/03/28 06:01:02;;;;;;;10.13;3.47;;;6.20;99.90;;;;;;4984993;28;20030;-71
2024/03/28 06:03:27;;;;;;;9.55;3.28;;;6.30;99.90;;;;;;4990748;28;20048;-70
2024/03/28 06:05:53;;;;;;;9.80;3.90;;;6.30;99.90;;;;;;4987554;28;20069;-71
2024/03/28 06:08:19;;;;;;;12.30;4.05;;;6.30;99.90;;;;;;4988537;28;20363;-71
2024/03/28 06:10:45;;;;;;;12.68;4.40;;;6.40;99.90;;;;;;4986389;28;20033;-70
2024/03/28 06:13:10;;;;;;;9.75;4.05;;;6.30;99.90;;;;;;4993505;28;20025;-70
2024/03/28 06:15:36;;;;;;;9.10;3.33;;;6.30;99.90;;;;;;4992177;28;20489;-71
2024/03/28 06:18:02;;;;;;;9.90;4.10;;;6.30;99.90;;;;;;4993622;28;20023;-69
2024/03/28 06:20:27;;;;;;;8.10;3.45;;;6.30;99.90;;;;;;4988173;28;20029;-69
2024/03/28 06:22:53;;;;;;;8.27;3.28;;;6.40;99.90;;;;;;4984359;28;20027;-71
2024/03/28 06:25:18;;;;;;;8.63;3.33;;;6.40;99.90;;;;;;4985979;28;20037;-70
2024/03/28 06:27:44;;;;;;;9.18;3.75;;;6.50;99.90;;;;;;4985592;28;20034;-71
2024/03/28 06:30:10;;;;;;;8.90;3.60;;;6.40;99.90;;;;;;4986126;28;20220;-70
2024/03/28 06:32:36;;;;;;;10.52;3.88;;;6.50;99.90;;;;;;4989610;28;20116;-72
2024/03/28 06:35:01;;;;;;;8.18;3.28;;;6.60;99.90;;;;;;4981150;28;20061;-67
2024/03/28 06:37:27;;;;;;;14.52;3.47;;;6.70;99.90;;;;;;4989719;28;20394;-71
2024/03/28 06:39:54;;;;;;;11.05;3.80;;;6.70;99.90;;;;;;4992873;28;20026;-70
2024/03/28 06:42:20;;;;;;;9.57;3.33;;;6.90;99.90;;;;;;4991758;28;20030;-71
2024/03/28 06:44:50;;;;;;;7.35;2.90;;;6.90;99.90;;;;;;4996123;28;20038;-71
2024/03/28 06:47:16;;;;;;;8.55;3.00;;;7.00;99.90;;;;;;4991476;28;20093;-70
2024/03/28 06:49:42;;;;;;;5.82;2.30;;;7.10;99.90;;;;;;4999519;28;20512;-68
2024/03/28 06:52:08;;;;;;;5.13;1.95;;;7.20;99.90;;;;;;4990790;28;20428;-70
2024/03/28 06:54:34;;;;;;;6.18;2.20;;;7.30;99.90;;;;;;4990661;28;20030;-70
2024/03/28 06:56:59;;;;;;;7.20;2.40;;;7.50;99.90;;;;;;4987404;28;20549;-69
2024/03/28 06:59:25;;;;;;;6.03;2.20;;;7.60;99.90;;;;;;4981164;28;20093;-67
2024/03/28 07:01:51;;;;;;;6.82;2.20;;;7.70;99.90;;;;;;4986179;28;20088;-69
2024/03/28 07:04:17;;;;;;;6.32;2.10;;;7.80;99.90;;;;;;4990215;28;20035;-68
2024/03/28 07:06:43;;;;;;;5.68;1.83;;;7.90;99.90;;;;;;4993448;28;20384;-70
2024/03/28 07:09:08;;;;;;;6.30;1.75;;;7.90;99.90;;;;;;4982695;28;20103;-63
2024/03/28 07:11:34;;;;;;;4.47;1.70;;;8.00;99.90;;;;;;4989106;28;20021;-61
2024/03/28 07:14:02;;;;;;;4.05;1.60;;;8.00;99.90;;;;;;4987619;28;20033;-63
2024/03/28 07:16:28;;;;;;;5.00;1.80;;;8.10;99.90;;;;;;4989407;28;20022;-61
2024/03/28 07:18:54;;;;;;;5.47;1.88;;;8.10;99.90;;;;;;4989897;28;20019;-62
2024/03/28 07:21:20;;;;;;;4.68;1.70;;;8.20;99.90;;;;;;4990831;28;20078;-62
2024/03/28 07:23:46;;;;;;;4.65;1.77;;;8.20;99.90;;;;;;4986314;28;20022;-63
2024/03/28 07:26:11;;;;;;;5.00;1.88;;;8.30;99.90;;;;;;4990247;28;20022;-63
2024/03/28 07:28:37;;;;;;;4.55;1.65;;;8.40;99.90;;;;;;4977887;28;20088;-61
2024/03/28 07:31:03;;;;;;;4.57;1.60;;;8.50;99.90;;;;;;4991235;28;20030;-63
2024/03/28 07:33:29;;;;;;;5.03;1.60;;;8.50;99.90;;;;;;4985819;28;20075;-64
2024/03/28 07:35:55;;;;;;;4.40;1.60;;;8.60;99.90;;;;;;4991308;28;20030;-63
2024/03/28 07:38:20;;;;;;;4.38;1.40;;;8.70;99.90;;;;;;4988236;28;20286;-64
2024/03/28 07:40:52;;;;;;;5.35;1.60;;;8.70;99.90;;;;;;4992489;28;20034;-63
2024/03/28 07:43:18;;;;;;;3.35;1.17;;;8.70;99.90;;;;;;4986280;28;20419;-70
2024/03/28 07:45:44;;;;;;;3.90;1.40;;;8.80;99.90;;;;;;4986292;28;20113;-65
2024/03/28 07:48:10;;;;;;;5.38;1.40;;;8.90;99.90;;;;;;4985099;28;20300;-65
2024/03/28 07:50:37;;;;;;;4.93;1.42;;;8.90;99.90;;;;;;4987006;28;20034;-65
2024/03/28 07:53:02;;;;;;;5.18;1.60;;;9.00;99.90;;;;;;4990777;28;20869;-65
2024/03/28 07:55:28;;;;;;;7.90;1.40;;;9.10;99.90;;;;;;4993230;28;20038;-66
2024/03/28 07:57:54;;;;;;;2.33;1.13;;;9.10;99.90;;;;;;4991479;28;20509;-65
2024/03/28 08:00:21;;;;;;;5.30;1.52;;;9.20;99.90;;;;;;4991002;28;20062;-65
2024/03/28 08:02:48;;;;;;;4.60;1.65;;;9.20;99.90;;;;;;4992469;28;20022;-65
2024/03/28 08:05:15;;;;;;;4.57;1.30;;;9.20;99.90;;;;;;4997170;28;20050;-66
2024/03/28 08:07:41;;;;;;;4.10;1.48;;;9.20;99.90;;;;;;4991890;28;20026;-67
2024/03/28 08:10:09;;;;;;;4.13;1.30;;;9.40;99.90;;;;;;4999220;28;20022;-66
2024/03/28 08:12:35;;;;;;;4.57;1.50;;;9.50;99.90;;;;;;4988354;28;20029;-66
2024/03/28 08:15:02;;;;;;;4.97;1.67;;;9.50;99.90;;;;;;4996237;28;20034;-66
2024/03/28 08:17:28;;;;;;;6.15;1.83;;;9.50;99.90;;;;;;4995018;28;20053;-65
2024/03/28 08:19:54;;;;;;;4.47;1.60;;;9.50;99.90;;;;;;4993662;28;20377;-70
2024/03/28 08:22:21;;;;;;;3.58;1.30;;;9.50;99.90;;;;;;4993534;28;20034;-71
2024/03/28 08:24:47;;;;;;;4.93;1.65;;;9.60;99.90;;;;;;4995573;28;20474;-72
2024/03/28 08:27:13;;;;;;;7.65;1.50;;;9.70;99.90;;;;;;4992549;28;20442;-63
2024/03/28 08:29:39;;;;;;;5.60;1.70;;;9.70;99.90;;;;;;4993545;28;20083;-63
2024/03/28 08:32:05;;;;;;;3.08;1.13;;;9.70;99.90;;;;;;4991586;28;20076;-63
2024/03/28 08:34:31;;;;;;;5.32;1.50;;;9.70;99.90;;;;;;4992578;28;20428;-63
2024/03/28 08:36:57;;;;;;;4.15;1.38;;;9.60;99.90;;;;;;4997714;28;20067;-62
2024/03/28 08:39:24;;;;;;;4.13;1.25;;;9.60;99.90;;;;;;4995370;28;20022;-62
2024/03/28 08:41:52;;;;;;;5.95;1.58;;;9.60;99.90;;;;;;4995648;28;20101;-60
2024/03/28 08:44:18;;;;;;;5.80;1.50;;;9.50;99.90;;;;;;4995212;28;20040;-60
2024/03/28 08:46:44;;;;;;;4.55;1.50;;;9.50;99.90;;;;;;4996762;28;20018;-61
2024/03/28 08:49:10;;;;;;;4.22;1.42;;;9.50;99.90;;;;;;4994080;28;20103;-66
2024/03/28 08:51:36;;;;;;;4.80;1.73;;;9.40;99.90;;;;;;4995508;28;20023;-66
2024/03/28 08:54:05;;;;;;;4.13;1.50;;;9.20;99.90;;;;;;4994615;28;20488;-62
2024/03/28 08:56:31;;;;;;;4.78;1.70;;;9.00;99.90;;;;;;4991353;28;20050;-63
2024/03/28 08:58:58;;;;;;;4.00;1.52;;;8.90;99.90;;;;;;4993604;28;20521;-62
2024/03/28 09:01:24;;;;;;;5.80;1.80;;;8.70;99.90;;;;;;4996552;28;20042;-62
2024/03/28 09:03:52;;;;;;;4.28;1.70;;;8.30;99.90;;;;;;4992436;28;20045;-61
2024/03/28 09:06:19;;;;;;;3.75;1.40;;;8.10;99.90;;;;;;4994766;28;20051;-63
2024/03/28 09:08:45;;;;;;;2.55;1.08;;;7.90;99.90;;;;;;4993144;28;20075;-61
2024/03/28 09:11:12;;;;;;;4.32;1.60;;;7.80;99.90;;;;;;4997312;28;20026;-63
2024/03/28 09:13:38;;;;;;;5.22;1.60;;;7.60;99.90;;;;;;4989122;28;20022;-63
2024/03/28 09:16:06;;;;;;;5.75;1.80;;;7.50;99.90;;;;;;4993613;28;20321;-62
2024/03/28 09:18:32;;;;;;;4.15;1.65;;;7.20;99.90;;;;;;4993222;28;20044;-63
2024/03/28 09:21:00;;;;;;;3.85;1.42;;;7.20;99.90;;;;;;4998130;28;20026;-62
2024/03/28 09:23:25;;;;;;;5.70;1.85;;;7.00;99.90;;;;;;4994259;28;20042;-62
2024/03/28 09:25:51;;;;;;;6.38;2.17;;;7.00;99.90;;;;;;4994963;28;20171;-63
2024/03/28 09:28:18;;;;;;;7.07;1.80;;;6.90;99.90;;;;;;4994503;28;20026;-62
2024/03/28 09:30:44;;;;;;;5.30;1.80;;;6.80;99.90;;;;;;4993794;28;20587;-63
2024/03/28 09:33:10;;;;;;;6.78;2.35;;;6.80;99.90;;;;;;4997514;28;20106;-63
2024/03/28 09:35:36;;;;;;;5.30;2.00;;;6.80;99.90;;;;;;4994690;28;20065;-64
2024/03/28 09:38:02;;;;;;;6.10;2.22;;;6.80;99.90;;;;;;4997975;28;20080;-64
2024/03/28 09:40:30;;;;;;;4.53;1.80;;;6.80;99.90;;;;;;4993636;28;20026;-63
2024/03/28 09:42:57;;;;;;;5.00;1.83;;;6.90;99.90;;;;;;4991663;28;20026;-63
2024/03/28 09:45:27;;;;;;;4.10;1.50;;;6.90;99.90;;;;;;4995080;28;20117;-63
2024/03/28 09:47:54;;;;;;;3.88;1.40;;;7.00;99.90;;;;;;4990435;28;20050;-64
2024/03/28 09:50:23;;;;;;;4.00;1.58;;;7.00;99.90;;;;;;4996407;28;20042;-64
2024/03/28 09:52:52;;;;;;;4.13;1.55;;;7.00;99.90;;;;;;4989386;28;20034;-64
2024/03/28 09:55:19;;;;;;;4.17;1.33;;;7.00;99.90;;;;;;5003416;28;20252;-63
2024/03/28 09:57:45;;;;;;;5.88;1.95;;;7.00;99.90;;;;;;4995967;28;20394;-64
2024/03/28 10:00:14;;;;;;;7.00;1.60;;;7.40;99.90;;;;;;4996537;28;20129;-65
2024/03/28 10:02:53;;;;;;;5.35;1.98;;;7.30;99.90;;;;;;4989612;28;20027;-66
2024/03/28 10:05:19;;;;;;;4.80;1.80;;;7.40;99.90;;;;;;4996886;28;20026;-65
2024/03/28 10:07:47;;;;;;;4.15;1.52;;;7.60;99.90;;;;;;4996267;28;20382;-65
2024/03/28 10:10:14;;;;;;;5.85;1.75;;;7.60;99.90;;;;;;4993702;28;20030;-65
2024/03/28 10:12:50;;;;;;;4.28;1.55;;;7.60;99.90;;;;;;4994254;28;20030;-66
2024/03/28 10:15:16;;;;;;;4.32;1.55;;;7.50;99.90;;;;;;4990876;28;20446;-66
2024/03/28 10:17:42;;;;;;;5.50;1.77;;;7.50;99.90;;;;;;4995463;28;20103;-63
2024/03/28 10:20:11;;;;;;;4.65;1.70;;;7.40;99.90;;;;;;4995478;28;20030;-63
2024/03/28 10:22:43;;;;;;;4.80;1.80;;;7.40;99.90;;;;;;4988529;28;20375;-66
2024/03/28 10:25:26;;;;;;;6.22;1.83;;;7.40;99.90;;;;;;4996154;28;20040;-66
2024/03/28 10:28:00;;;;;;;5.95;1.98;;;7.30;99.90;;;;;;4978559;28;20230;-69
2024/03/28 10:30:26;;;;;;;6.55;1.80;;;7.40;99.90;;;;;;4987376;28;20220;-69
2024/03/28 10:33:04;;;;;;;6.47;1.80;;;7.40;99.90;;;;;;4982833;28;20279;-69
2024/03/28 10:35:38;;;;;;;4.93;1.70;;;7.40;99.90;;;;;;4985675;28;20485;-71
2024/03/28 10:38:07;;;;;;;4.68;1.73;;;7.40;99.90;;;;;;4986648;28;20026;-70
2024/03/28 10:40:37;;;;;;;5.07;1.90;;;7.40;99.90;;;;;;4996274;28;20026;-64
2024/03/28 10:43:06;;;;;;;4.95;1.60;;;7.40;99.90;;;;;;4988374;28;20759;-67
2024/03/28 10:45:38;;;;;;;5.38;1.90;;;7.30;99.90;;;;;;4994026;28;20026;-67
2024/03/28 10:48:13;;;;;;;4.20;1.75;;;7.30;99.90;;;;;;4991947;28;20042;-67
2024/03/28 10:50:43;;;;;;;4.88;1.85;;;7.40;99.90;;;;;;4989257;28;20030;-66
2024/03/28 10:53:31;;;;;;;4.10;1.60;;;7.30;99.90;;;;;;4991248;28;20030;-67
2024/03/28 10:56:06;;;;;;;5.38;1.92;;;7.40;99.90;;;;;;4991377;28;20087;-67
2024/03/28 10:58:32;;;;;;;3.97;1.52;;;7.30;99.90;;;;;;4992138;28;20041;-65
2024/03/28 11:00:59;;;;;;;5.60;2.00;;;7.40;99.90;;;;;;4996507;28;20035;-67
2024/03/28 11:03:26;;;;;;;4.38;1.65;;;7.40;99.90;;;;;;4988109;28;20034;-67
2024/03/28 11:05:53;;;;;;;5.03;1.77;;;7.40;99.90;;;;;;4998325;28;20536;-67
2024/03/28 11:08:20;;;;;;;6.63;2.25;;;7.30;99.90;;;;;;4989309;28;20034;-67
2024/03/28 11:10:48;;;;;;;5.60;1.65;;;7.30;99.90;;;;;;4988932;28;20138;-68
2024/03/28 11:13:14;;;;;;;4.72;1.90;;;7.30;99.90;;;;;;4995469;28;20022;-68
2024/03/28 11:15:40;;;;;;;6.90;2.35;;;7.20;99.90;;;;;;4998477;28;20026;-68
2024/03/28 11:18:06;;;;;;;5.15;1.77;;;7.10;99.90;;;;;;4997503;28;20030;-67
2024/03/28 11:20:32;;;;;;;3.38;1.38;;;7.00;99.90;;;;;;4998470;28;20474;-67
2024/03/28 11:23:04;;;;;;;5.57;1.80;;;7.00;99.90;;;;;;4990860;28;20121;-64
2024/03/28 11:25:36;;;;;;;4.75;1.88;;;7.00;99.90;;;;;;4999188;28;20026;-67
2024/03/28 11:28:11;;;;;;;3.47;1.50;;;7.10;99.90;;;;;;4989585;28;20521;-65
2024/03/28 11:30:39;;;;;;;3.95;1.42;;;7.10;99.90;;;;;;4997419;28;20045;-64
2024/03/28 11:33:11;;;;;;;4.85;1.50;;;7.10;99.90;;;;;;4998593;28;20038;-64
2024/03/28 11:35:41;;;;;;;5.07;1.70;;;7.20;99.90;;;;;;5000501;28;20038;-66
2024/03/28 11:38:11;;;;;;;3.93;1.40;;;7.30;99.90;;;;;;4995584;28;20038;-65
2024/03/28 11:40:37;;;;;;;4.68;1.23;;;7.40;99.90;;;;;;5001229;28;20577;-66
2024/03/28 11:43:14;;;;;;;4.50;1.70;;;7.50;99.90;;;;;;4997990;28;20045;-65
2024/03/28 11:45:57;;;;;;;3.72;1.60;;;7.70;99.90;;;;;;4995954;28;20026;-65
2024/03/28 11:48:25;;;;;;;4.18;1.70;;;7.70;99.90;;;;;;4993928;28;20052;-66
2024/03/28 11:50:52;;;;;;;3.63;1.40;;;7.80;99.90;;;;;;4998160;28;20021;-65
2024/03/28 11:53:19;;;;;;;4.28;1.60;;;7.80;99.90;;;;;;4998876;28;20057;-68
2024/03/28 11:55:46;;;;;;;6.63;1.70;;;7.80;99.90;;;;;;4992979;28;20058;-65
2024/03/28 11:58:23;;;;;;;4.30;1.55;;;7.90;99.90;;;;;;4998148;28;20439;-65
2024/03/28 12:00:49;;;;;;;5.05;1.70;;;8.10;99.90;;;;;;4997501;28;20117;-65
2024/03/28 12:03:15;;;;;;;5.55;1.70;;;8.40;99.90;;;;;;4998829;28;20125;-65
2024/03/28 12:05:41;;;;;;;4.55;1.67;;;8.50;99.90;;;;;;4997136;28;20749;-65
2024/03/28 12:08:07;;;;;;;5.10;1.35;;;8.70;99.90;;;;;;4997763;28;20053;-66
2024/03/28 12:10:34;;;;;;;4.63;1.38;;;9.00;99.90;;;;;;4994989;28;20062;-65
2024/03/28 12:13:07;;;;;;;4.35;1.35;;;9.30;99.90;;;;;;4998262;28;20078;-65
2024/03/28 12:15:33;;;;;;;4.28;1.50;;;9.90;99.90;;;;;;4995979;28;20026;-65
2024/03/28 12:17:58;;;;;;;3.15;1.27;;;10.50;99.90;;;;;;4998563;28;20041;-66
2024/03/28 12:20:24;;;;;;;3.60;1.33;;;11.10;99.90;;;;;;4995594;28;20029;-66
2024/03/28 12:22:54;;;;;;;2.55;1.10;;;11.60;99.90;;;;;;4998166;28;20038;-65
2024/03/28 12:25:21;;;;;;;;;;;12.00;99.90;;;;;;4995438;28;20420;-65
2024/03/28 12:28:03;;;;;;;6.63;1.45;;;12.00;99.90;;;;;;4992492;28;19910;-64
2024/03/28 12:30:29;;;;;;;3.17;1.20;;;12.30;99.90;;;;;;4994448;28;20062;-65
2024/03/28 12:33:05;;;;;;;3.85;1.27;;;12.70;99.90;;;;;;4996815;28;20018;-64
2024/03/28 12:35:32;;;;;;;2.88;1.10;;;12.80;99.90;;;;;;4995457;28;20321;-65
2024/03/28 12:38:01;;;;;;;4.43;1.40;;;12.80;99.90;;;;;;4990586;28;20033;-65
2024/03/28 12:40:27;;;;;;;4.18;2.00;;;12.70;99.90;;;;;;4993833;28;20117;-65
2024/03/28 12:42:54;;;;;;;3.50;1.23;;;12.70;99.90;;;;;;4996958;28;20036;-65
2024/03/28 12:45:21;;;;;;;3.53;1.20;;;12.10;99.90;;;;;;4995532;28;20034;-64
2024/03/28 12:47:48;;;;;;;2.67;1.10;;;11.50;99.90;;;;;;4990741;28;20132;-65
2024/03/28 12:50:19;;;;;;;3.92;1.52;;;11.20;99.90;;;;;;4995732;28;20026;-65
2024/03/28 12:52:46;;;;;;;2.65;1.17;;;11.10;99.90;;;;;;4991811;28;20083;-66
2024/03/28 12:55:12;;;;;;;1.75;0.90;;;11.60;99.90;;;;;;4995459;28;20453;-65
2024/03/28 12:57:38;;;;;;;2.83;1.00;;;12.50;99.90;;;;;;4995795;28;20040;-66
2024/03/28 13:00:04;;;;;;;6.28;1.75;;;13.70;99.90;;;;;;4995084;28;20038;-65